Time;durP1;ratioP1;P1;durP2;ratioP2;P2;SDS_P1;SDS_P2;PMS_P1;PMS_P2;Temp;Humidity;BMP_temperature;BMP_pressure;BME280_temperature;BME280_humidity;BME280_pressure;Samples;Min_cycle;Max_cycle;Signal;HPM_P1;HPM_P2
2021/04/29 00:00:19;;;;;;;4.40;3.10;;;14.90;68.60;;;;;;2079595;28;20022;-68
2021/04/29 00:01:19;;;;;;;4.28;2.60;;;15.00;69.00;;;;;;2079724;28;20030;-67
2021/04/29 00:02:20;;;;;;;3.58;3.08;;;15.00;69.20;;;;;;2078393;28;20079;-68
2021/04/29 00:03:21;;;;;;;5.28;3.50;;;15.00;69.30;;;;;;2079626;28;20479;-68
2021/04/29 00:04:21;;;;;;;5.28;3.05;;;15.00;69.00;;;;;;2080002;28;20409;-67
2021/04/29 00:05:26;;;;;;;3.47;3.17;;;15.00;69.40;;;;;;2079597;28;20096;-67
2021/04/29 00:06:26;;;;;;;3.65;2.55;;;15.00;69.50;;;;;;2079624;28;20026;-67
2021/04/29 00:07:27;;;;;;;7.00;3.15;;;15.00;69.60;;;;;;2084385;28;20025;-67
2021/04/29 00:08:27;;;;;;;4.32;2.83;;;15.00;69.70;;;;;;2087651;28;20032;-67
2021/04/29 00:09:29;;;;;;;4.43;2.88;;;15.00;69.80;;;;;;2087771;28;20052;-67
2021/04/29 00:10:32;;;;;;;4.22;2.70;;;15.00;69.90;;;;;;2087561;28;20021;-67
2021/04/29 00:11:34;;;;;;;5.72;2.80;;;15.00;71.50;;;;;;2087914;28;20025;-68
2021/04/29 00:12:35;;;;;;;4.30;2.45;;;15.00;70.10;;;;;;2086995;28;20033;-68
2021/04/29 00:13:36;;;;;;;5.22;2.80;;;15.00;70.30;;;;;;2088157;28;20021;-68
2021/04/29 00:14:37;;;;;;;5.55;2.97;;;15.10;70.80;;;;;;2082854;28;20064;-67
2021/04/29 00:15:37;;;;;;;4.72;2.78;;;15.10;70.60;;;;;;2079696;28;20052;-67
2021/04/29 00:16:42;;;;;;;4.80;3.00;;;15.10;70.70;;;;;;2079335;28;20029;-68
2021/04/29 00:17:44;;;;;;;3.97;2.70;;;15.10;71.40;;;;;;2079723;28;20036;-68
2021/04/29 00:18:45;;;;;;;4.20;2.50;;;15.10;70.80;;;;;;2079512;28;20563;-67
2021/04/29 00:19:45;;;;;;;5.22;3.33;;;15.10;70.60;;;;;;2079725;28;20374;-68
2021/04/29 00:20:46;;;;;;;8.60;3.08;;;15.10;70.70;;;;;;2079587;28;20496;-67
2021/04/29 00:21:47;;;;;;;12.43;3.20;;;15.10;70.80;;;;;;2079687;28;20052;-67
2021/04/29 00:22:48;;;;;;;4.82;2.88;;;15.10;70.80;;;;;;2078906;28;20025;-67
2021/04/29 00:23:49;;;;;;;3.92;2.75;;;15.10;71.00;;;;;;2070733;28;20128;-67
2021/04/29 00:24:49;;;;;;;5.15;3.00;;;15.10;71.20;;;;;;2070435;28;20149;-68
2021/04/29 00:25:50;;;;;;;5.28;2.80;;;15.10;71.50;;;;;;2071263;28;20022;-67
2021/04/29 00:26:50;;;;;;;3.60;2.60;;;15.10;71.40;;;;;;2075010;28;20029;-68
2021/04/29 00:27:51;;;;;;;4.00;2.55;;;15.10;71.70;;;;;;2079961;28;20096;-68
2021/04/29 00:28:52;;;;;;;4.38;2.70;;;15.10;71.90;;;;;;2079054;28;20453;-67
2021/04/29 00:29:53;;;;;;;2.72;2.53;;;15.10;71.60;;;;;;2079848;28;20400;-67
2021/04/29 00:30:54;;;;;;;4.10;2.60;;;15.10;72.10;;;;;;2079508;28;20096;-67
2021/04/29 00:31:54;;;;;;;3.15;2.63;;;15.10;71.80;;;;;;2079569;28;20022;-67
2021/04/29 00:32:55;;;;;;;3.25;2.80;;;15.10;71.70;;;;;;2078834;28;20032;-68
2021/04/29 00:33:56;;;;;;;3.85;2.47;;;15.10;71.70;;;;;;2079845;28;20132;-68
2021/04/29 00:34:56;;;;;;;4.25;2.67;;;15.10;72.10;;;;;;2079589;28;20029;-68
2021/04/29 00:36:00;;;;;;;2.42;2.22;;;15.10;72.20;;;;;;2079562;28;20415;-67
2021/04/29 00:37:01;;;;;;;3.28;2.55;;;15.10;72.20;;;;;;2079263;28;20120;-67
2021/04/29 00:38:01;;;;;;;3.08;2.38;;;15.10;72.10;;;;;;2079665;28;20022;-67
2021/04/29 00:39:03;;;;;;;3.60;2.40;;;15.10;71.90;;;;;;2079568;28;20377;-67
2021/04/29 00:40:04;;;;;;;7.65;2.97;;;15.10;72.20;;;;;;2079368;28;20025;-67
2021/04/29 00:41:05;;;;;;;4.65;2.60;;;15.10;72.50;;;;;;2079242;28;20041;-67
2021/04/29 00:42:07;;;;;;;3.13;2.25;;;15.10;72.30;;;;;;2079137;28;20064;-68
2021/04/29 00:43:12;;;;;;;4.28;2.67;;;15.10;72.60;;;;;;2079549;28;20904;-67
2021/04/29 00:44:12;;;;;;;4.68;2.70;;;15.10;73.40;;;;;;2079537;28;20103;-67
2021/04/29 00:45:13;;;;;;;3.58;2.70;;;15.10;72.50;;;;;;2078755;28;20034;-67
2021/04/29 00:46:14;;;;;;;6.80;2.65;;;15.10;72.70;;;;;;2078820;28;20030;-68
2021/04/29 00:47:15;;;;;;;3.45;2.53;;;15.10;72.50;;;;;;2071355;28;20029;-67
2021/04/29 00:48:16;;;;;;;3.10;2.22;;;15.10;72.70;;;;;;2078248;28;20426;-67
2021/04/29 00:49:17;;;;;;;2.80;2.60;;;15.00;72.70;;;;;;2079598;28;20041;-67
2021/04/29 00:50:21;;;;;;;2.67;2.13;;;15.10;72.50;;;;;;2079741;28;20119;-67
2021/04/29 00:51:21;;;;;;;2.80;2.40;;;15.10;72.90;;;;;;2079614;28;20029;-67
2021/04/29 00:52:22;;;;;;;3.90;2.53;;;15.00;72.90;;;;;;2078083;28;20120;-67
2021/04/29 00:53:35;;;;;;;5.03;3.45;;;15.00;73.00;;;;;;2078767;28;20048;-68
2021/04/29 00:54:36;;;;;;;4.20;2.67;;;15.00;74.00;;;;;;2077095;28;20034;-68
2021/04/29 00:55:36;;;;;;;2.70;2.40;;;15.00;72.50;;;;;;2084948;28;20439;-67
2021/04/29 00:56:37;;;;;;;7.85;2.50;;;15.00;73.00;;;;;;2079374;28;20072;-67
2021/04/29 00:57:37;;;;;;;6.35;2.58;;;14.90;73.00;;;;;;2079494;28;20041;-68
2021/04/29 00:58:39;;;;;;;5.57;2.63;;;14.90;73.00;;;;;;2079043;28;20194;-67
2021/04/29 00:59:39;;;;;;;2.28;2.13;;;14.90;73.10;;;;;;2079168;28;20104;-67
2021/04/29 01:00:40;;;;;;;4.72;2.30;;;14.90;73.00;;;;;;2079119;28;20038;-68
2021/04/29 01:01:41;;;;;;;4.13;2.55;;;14.90;73.10;;;;;;2079906;28;20447;-67
2021/04/29 01:02:49;;;;;;;6.00;2.70;;;14.90;73.50;;;;;;2078704;28;20099;-67
2021/04/29 01:03:54;;;;;;;5.30;2.72;;;14.90;74.00;;;;;;2079631;28;20064;-67
2021/04/29 01:05:04;;;;;;;4.18;2.70;;;14.90;74.70;;;;;;2079346;28;20124;-67
2021/04/29 01:06:16;;;;;;;3.78;2.45;;;14.90;75.30;;;;;;2079403;28;20644;-67
2021/04/29 01:07:18;;;;;;;2.83;2.33;;;14.90;75.10;;;;;;2082259;28;20044;-68
2021/04/29 01:08:58;;;;;;;3.13;2.83;;;14.80;74.20;;;;;;2087789;28;20021;-67
2021/04/29 01:10:13;;;;;;;2.22;2.10;;;14.80;77.40;;;;;;2087957;28;20419;-67
2021/04/29 01:11:20;;;;;;;2.83;2.47;;;14.70;75.10;;;;;;2079209;28;20431;-68
2021/04/29 01:12:28;;;;;;;6.70;2.60;;;14.70;75.00;;;;;;2078751;28;20083;-68
2021/04/29 01:13:31;;;;;;;3.17;2.28;;;14.70;75.30;;;;;;2071666;28;20045;-67
2021/04/29 01:14:32;;;;;;;4.35;2.85;;;14.70;75.70;;;;;;2078490;28;20120;-68
2021/04/29 01:15:37;;;;;;;2.85;2.50;;;14.70;75.20;;;;;;2078549;28;20030;-67
2021/04/29 01:16:39;;;;;;;2.55;2.35;;;14.70;75.30;;;;;;2071252;28;20033;-67
2021/04/29 01:17:43;;;;;;;4.63;2.78;;;14.70;75.10;;;;;;2071354;28;20037;-67
2021/04/29 01:18:46;;;;;;;5.75;3.15;;;14.70;75.10;;;;;;2075044;28;20120;-67
2021/04/29 01:19:54;;;;;;;3.17;2.53;;;14.70;75.30;;;;;;2079414;28;20119;-68
2021/04/29 01:21:09;;;;;;;3.45;2.42;;;14.70;76.70;;;;;;2079154;28;20487;-68
2021/04/29 01:22:12;;;;;;;2.92;2.47;;;14.70;77.70;;;;;;2078817;28;20042;-67
2021/04/29 01:23:37;;;;;;;5.53;2.22;;;14.60;75.70;;;;;;2080470;28;20030;-67
2021/04/29 01:25:04;;;;;;;4.70;2.80;;;14.60;76.50;;;;;;2080447;28;20017;-68
2021/04/29 01:26:29;;;;;;;2.92;2.60;;;14.60;77.70;;;;;;2080950;28;20518;-67
2021/04/29 01:27:31;;;;;;;4.68;2.60;;;14.60;78.80;;;;;;2080802;28;20021;-67
2021/04/29 01:28:32;;;;;;;3.33;2.72;;;14.60;76.20;;;;;;2080951;28;20517;-67
2021/04/29 01:29:34;;;;;;;3.15;2.45;;;14.60;75.90;;;;;;2080496;28;20384;-67
2021/04/29 01:30:36;;;;;;;3.70;2.60;;;14.60;75.80;;;;;;2080721;28;20018;-67
2021/04/29 01:31:39;;;;;;;2.85;2.42;;;14.60;76.10;;;;;;2080378;28;20040;-67
2021/04/29 01:32:41;;;;;;;4.55;2.30;;;14.60;76.40;;;;;;2080090;28;20467;-67
2021/04/29 01:33:42;;;;;;;4.65;2.70;;;14.60;75.80;;;;;;2081088;28;20076;-67
2021/04/29 01:34:43;;;;;;;3.28;2.40;;;14.60;75.40;;;;;;2081078;28;20094;-68
2021/04/29 01:35:44;;;;;;;2.70;2.50;;;14.60;75.70;;;;;;2080742;28;20033;-67
2021/04/29 01:36:46;;;;;;;4.43;2.85;;;14.60;76.20;;;;;;2076241;28;20554;-68
2021/04/29 01:37:48;;;;;;;4.25;2.40;;;14.60;76.60;;;;;;2076405;28;20041;-68
2021/04/29 01:38:49;;;;;;;5.57;2.25;;;14.60;76.20;;;;;;2073252;28;20023;-67
2021/04/29 01:39:50;;;;;;;4.45;2.70;;;14.60;76.10;;;;;;2084745;28;20024;-67
2021/04/29 01:40:52;;;;;;;3.15;2.70;;;14.60;76.10;;;;;;2089077;28;20049;-67
2021/04/29 01:41:54;;;;;;;2.55;2.20;;;14.60;76.40;;;;;;2079761;28;20041;-67
2021/04/29 01:42:55;;;;;;;2.60;2.40;;;14.60;76.90;;;;;;2080156;28;20045;-67
2021/04/29 01:43:56;;;;;;;4.10;2.50;;;14.60;77.10;;;;;;2080777;28;20380;-67
2021/04/29 01:44:56;;;;;;;5.07;2.53;;;14.60;76.80;;;;;;2085557;28;20025;-68
2021/04/29 01:45:57;;;;;;;3.05;2.40;;;14.60;77.20;;;;;;2081769;28;20022;-67
2021/04/29 01:47:00;;;;;;;5.93;2.70;;;14.60;77.50;;;;;;2073059;28;20045;-67
2021/04/29 01:48:01;;;;;;;4.10;2.47;;;14.60;77.30;;;;;;2072770;28;20026;-67
2021/04/29 01:49:03;;;;;;;3.50;2.30;;;14.60;76.90;;;;;;2080161;28;20127;-67
2021/04/29 01:50:06;;;;;;;4.72;2.28;;;14.70;77.10;;;;;;2080726;28;20064;-68
2021/04/29 01:51:08;;;;;;;3.70;2.28;;;14.60;77.00;;;;;;2083297;28;20014;-67
2021/04/29 01:52:09;;;;;;;2.70;2.50;;;14.70;77.30;;;;;;2088512;28;20021;-68
2021/04/29 01:53:10;;;;;;;3.85;2.35;;;14.60;77.10;;;;;;2081173;28;20041;-67
2021/04/29 01:54:12;;;;;;;3.28;2.30;;;14.60;77.20;;;;;;2079914;28;20501;-68
2021/04/29 01:55:13;;;;;;;2.63;2.42;;;14.60;76.80;;;;;;2078791;28;20049;-68
2021/04/29 01:56:14;;;;;;;4.00;2.60;;;14.60;76.90;;;;;;2082038;28;20100;-68
2021/04/29 01:57:20;;;;;;;2.83;2.30;;;14.70;77.40;;;;;;2080014;28;20025;-68
2021/04/29 01:58:22;;;;;;;3.80;2.80;;;14.60;78.70;;;;;;2080594;28;20039;-67
2021/04/29 01:59:22;;;;;;;2.65;2.45;;;14.60;77.10;;;;;;2085694;28;20068;-68
2021/04/29 02:00:23;;;;;;;2.42;2.20;;;14.60;77.00;;;;;;2080836;28;20484;-67
2021/04/29 02:01:25;;;;;;;3.70;2.63;;;14.60;77.10;;;;;;2082063;28;20032;-67
2021/04/29 02:02:26;;;;;;;2.55;2.35;;;14.60;77.00;;;;;;2084766;28;20060;-68
2021/04/29 02:03:27;;;;;;;3.78;2.45;;;14.60;77.10;;;;;;2090191;28;20123;-68
2021/04/29 02:04:28;;;;;;;3.92;2.28;;;14.60;76.80;;;;;;2090016;28;20104;-67
2021/04/29 02:05:28;;;;;;;2.78;2.42;;;14.60;76.90;;;;;;2088725;28;20036;-67
2021/04/29 02:06:29;;;;;;;5.15;2.38;;;14.60;76.90;;;;;;2082056;28;20031;-67
2021/04/29 02:07:30;;;;;;;2.95;2.72;;;14.60;77.20;;;;;;2081892;28;20053;-68
2021/04/29 02:08:31;;;;;;;2.97;2.67;;;14.60;77.30;;;;;;2081951;28;20025;-67
2021/04/29 02:09:31;;;;;;;2.90;2.45;;;14.60;77.40;;;;;;2082092;28;20072;-67
2021/04/29 02:10:33;;;;;;;4.22;2.50;;;14.70;77.60;;;;;;2084911;28;20032;-67
2021/04/29 02:11:37;;;;;;;7.75;2.30;;;14.60;77.80;;;;;;2090401;28;20032;-67
2021/04/29 02:12:43;;;;;;;3.35;2.53;;;14.60;77.70;;;;;;2089411;28;20029;-68
2021/04/29 02:13:46;;;;;;;3.50;2.50;;;14.60;77.90;;;;;;2089420;28;20549;-68
2021/04/29 02:15:00;;;;;;;2.80;2.10;;;14.60;77.80;;;;;;2084825;28;20040;-67
2021/04/29 02:16:05;;;;;;;2.63;2.40;;;14.60;79.20;;;;;;2082037;28;20040;-67
2021/04/29 02:17:13;;;;;;;2.85;2.30;;;14.60;77.90;;;;;;2081985;28;20085;-67
2021/04/29 02:18:17;;;;;;;5.28;2.70;;;14.60;79.10;;;;;;2081633;28;20056;-67
2021/04/29 02:19:21;;;;;;;6.05;2.65;;;14.60;78.30;;;;;;2082170;28;20022;-67
2021/04/29 02:20:24;;;;;;;4.18;2.72;;;14.60;78.40;;;;;;2081933;28;20445;-67
2021/04/29 02:21:26;;;;;;;3.67;2.53;;;14.60;78.40;;;;;;2082011;28;20029;-67
2021/04/29 02:22:29;;;;;;;4.60;2.72;;;14.60;77.90;;;;;;2081188;28;20072;-67
2021/04/29 02:23:31;;;;;;;3.95;2.88;;;14.60;77.90;;;;;;2081610;28;20111;-67
2021/04/29 02:24:33;;;;;;;3.85;2.70;;;14.60;77.50;;;;;;2081767;28;20033;-67
2021/04/29 02:25:34;;;;;;;5.93;2.72;;;14.60;77.30;;;;;;2081519;28;20595;-67
2021/04/29 02:26:35;;;;;;;3.38;2.55;;;14.60;77.60;;;;;;2081979;28;20037;-67
2021/04/29 02:27:37;;;;;;;3.38;2.60;;;14.60;77.60;;;;;;2082090;28;20532;-67
2021/04/29 02:28:38;;;;;;;10.57;2.85;;;14.60;78.10;;;;;;2081868;28;20433;-67
2021/04/29 02:29:42;;;;;;;3.28;2.60;;;14.60;78.00;;;;;;2081950;28;20068;-67
2021/04/29 02:30:45;;;;;;;4.10;2.33;;;14.60;78.70;;;;;;2090166;28;20037;-67
2021/04/29 02:31:46;;;;;;;3.75;2.63;;;14.60;77.60;;;;;;2090000;28;20048;-67
2021/04/29 02:32:47;;;;;;;3.00;2.42;;;14.60;78.00;;;;;;2089625;28;20469;-67
2021/04/29 02:33:48;;;;;;;5.82;2.80;;;14.60;78.30;;;;;;2089412;28;20361;-67
2021/04/29 02:34:49;;;;;;;5.82;3.53;;;14.60;78.40;;;;;;2089924;28;20045;-67
2021/04/29 02:35:50;;;;;;;6.28;3.00;;;14.60;78.30;;;;;;2090100;28;20025;-67
2021/04/29 02:36:51;;;;;;;4.18;3.55;;;14.60;78.10;;;;;;2090248;28;20358;-67
2021/04/29 02:37:53;;;;;;;4.20;3.00;;;14.60;78.20;;;;;;2089831;28;20033;-67
2021/04/29 02:38:55;;;;;;;3.38;2.72;;;14.60;78.10;;;;;;2089985;28;20033;-67
2021/04/29 02:39:56;;;;;;;5.32;3.22;;;14.60;78.10;;;;;;2089947;28;20025;-67
2021/04/29 02:40:58;;;;;;;3.47;3.03;;;14.60;78.00;;;;;;2089759;28;20033;-67
2021/04/29 02:41:58;;;;;;;3.70;3.25;;;14.60;78.20;;;;;;2089722;28;20379;-67
2021/04/29 02:43:00;;;;;;;4.85;3.00;;;14.60;78.50;;;;;;2089494;28;20021;-67
2021/04/29 02:44:02;;;;;;;3.65;2.53;;;14.60;79.10;;;;;;2081680;28;20029;-67
2021/04/29 02:45:05;;;;;;;6.20;3.45;;;14.60;79.00;;;;;;2081863;28;20460;-67
2021/04/29 02:46:06;;;;;;;6.57;3.55;;;14.60;78.30;;;;;;2081447;28;20345;-67
2021/04/29 02:47:07;;;;;;;7.38;3.55;;;14.60;78.80;;;;;;2081982;28;20079;-67
2021/04/29 02:48:09;;;;;;;4.82;2.78;;;14.50;79.20;;;;;;2080735;28;20048;-67
2021/04/29 02:49:11;;;;;;;4.53;3.25;;;14.50;79.20;;;;;;2081033;28;20017;-67
2021/04/29 02:50:16;;;;;;;4.63;3.95;;;14.60;78.90;;;;;;2081354;28;20025;-67
2021/04/29 02:51:17;;;;;;;5.82;3.55;;;14.60;79.30;;;;;;2081812;28;20076;-67
2021/04/29 02:52:18;;;;;;;3.88;3.45;;;14.50;79.20;;;;;;2081108;28;20105;-67
2021/04/29 02:53:19;;;;;;;8.98;4.65;;;14.50;79.10;;;;;;2081707;28;20094;-67
2021/04/29 02:54:22;;;;;;;6.18;3.70;;;14.60;79.30;;;;;;2081394;28;20075;-67
2021/04/29 02:55:24;;;;;;;4.45;4.05;;;14.50;79.00;;;;;;2086559;28;20044;-67
2021/04/29 02:56:25;;;;;;;6.45;4.30;;;14.50;79.70;;;;;;2082030;28;20021;-67
2021/04/29 02:57:25;;;;;;;5.22;3.83;;;14.50;78.70;;;;;;2081740;28;20025;-67
2021/04/29 02:58:26;;;;;;;5.60;3.95;;;14.50;79.50;;;;;;2080970;28;20029;-67
2021/04/29 02:59:27;;;;;;;9.15;3.83;;;14.50;79.90;;;;;;2087527;28;20074;-67
2021/04/29 03:00:30;;;;;;;6.80;4.38;;;14.50;80.00;;;;;;2089613;28;20041;-67
2021/04/29 03:01:34;;;;;;;7.28;3.97;;;14.50;80.40;;;;;;2089869;28;20033;-67
2021/04/29 03:02:34;;;;;;;4.35;3.72;;;14.50;80.30;;;;;;2088179;28;20028;-67
2021/04/29 03:03:35;;;;;;;8.82;3.97;;;14.50;80.00;;;;;;2089325;28;20052;-67
2021/04/29 03:04:35;;;;;;;4.40;3.53;;;14.50;80.00;;;;;;2080593;28;20036;-67
2021/04/29 03:05:37;;;;;;;11.27;3.70;;;14.50;80.20;;;;;;2080649;28;20022;-67
2021/04/29 03:06:38;;;;;;;5.90;3.90;;;14.50;80.70;;;;;;2080449;28;20147;-67
2021/04/29 03:07:40;;;;;;;7.40;4.35;;;14.50;81.00;;;;;;2087385;28;20051;-67
2021/04/29 03:08:41;;;;;;;7.03;4.38;;;14.50;81.00;;;;;;2088775;28;20029;-67
2021/04/29 03:09:41;;;;;;;6.93;4.50;;;14.50;80.90;;;;;;2088831;28;20032;-67
2021/04/29 03:10:42;;;;;;;5.10;4.60;;;14.50;81.20;;;;;;2088221;28;20478;-67
2021/04/29 03:11:42;;;;;;;5.18;4.18;;;14.40;81.40;;;;;;2087622;28;20021;-67
2021/04/29 03:12:43;;;;;;;7.50;4.40;;;14.40;81.20;;;;;;2079581;28;20460;-67
2021/04/29 03:13:44;;;;;;;7.40;4.30;;;14.40;81.90;;;;;;2079909;28;20088;-67
2021/04/29 03:14:44;;;;;;;7.38;5.03;;;14.40;82.00;;;;;;2072422;28;20030;-67
2021/04/29 03:15:45;;;;;;;8.63;6.03;;;14.50;81.70;;;;;;2078242;28;20032;-67
2021/04/29 03:16:46;;;;;;;9.82;5.97;;;14.50;81.80;;;;;;2080201;28;20111;-67
2021/04/29 03:17:46;;;;;;;8.48;5.97;;;14.50;81.60;;;;;;2080391;28;20069;-67
2021/04/29 03:18:47;;;;;;;6.60;5.13;;;14.40;81.40;;;;;;2080307;28;20044;-67
2021/04/29 03:19:48;;;;;;;9.00;6.20;;;14.50;81.40;;;;;;2080363;28;20032;-67
2021/04/29 03:20:48;;;;;;;7.65;6.07;;;14.40;81.50;;;;;;2079665;28;20033;-67
2021/04/29 03:21:49;;;;;;;6.68;5.93;;;14.40;81.50;;;;;;2080193;28;20481;-67
2021/04/29 03:22:49;;;;;;;9.35;6.22;;;14.40;81.80;;;;;;2079763;28;20108;-67
2021/04/29 03:23:50;;;;;;;9.52;6.55;;;14.40;82.00;;;;;;2079733;28;20057;-67
2021/04/29 03:24:50;;;;;;;7.55;6.50;;;14.40;82.00;;;;;;2079589;28;20029;-68
2021/04/29 03:25:51;;;;;;;9.02;6.53;;;14.40;82.20;;;;;;2080180;28;20053;-67
2021/04/29 03:26:51;;;;;;;7.47;6.72;;;14.40;82.60;;;;;;2079829;28;20021;-67
2021/04/29 03:27:52;;;;;;;10.48;7.22;;;14.40;83.30;;;;;;2080199;28;20079;-67
2021/04/29 03:28:52;;;;;;;10.52;8.13;;;14.40;83.50;;;;;;2081940;28;20026;-67
2021/04/29 03:29:54;;;;;;;10.23;7.30;;;14.40;83.70;;;;;;2079993;28;20068;-67
2021/04/29 03:30:54;;;;;;;9.48;8.20;;;14.40;84.10;;;;;;2080038;28;20036;-67
2021/04/29 03:31:55;;;;;;;10.43;8.77;;;14.40;84.20;;;;;;2079871;28;20422;-67
2021/04/29 03:32:55;;;;;;;13.32;8.80;;;14.40;84.50;;;;;;2079743;28;20350;-67
2021/04/29 03:33:56;;;;;;;11.95;9.50;;;14.40;84.70;;;;;;2080205;28;20026;-70
2021/04/29 03:34:57;;;;;;;12.65;9.13;;;14.40;84.60;;;;;;2080162;28;20029;-67
2021/04/29 03:35:57;;;;;;;11.13;9.45;;;14.40;84.70;;;;;;2079768;28;20508;-67
2021/04/29 03:36:58;;;;;;;9.43;8.13;;;14.40;84.90;;;;;;2077479;28;20032;-67
2021/04/29 03:37:58;;;;;;;9.35;8.25;;;14.30;85.10;;;;;;2079773;28;20029;-67
2021/04/29 03:38:59;;;;;;;11.15;9.82;;;14.40;85.20;;;;;;2080103;28;20044;-67
2021/04/29 03:40:00;;;;;;;10.98;8.60;;;14.40;85.30;;;;;;2085190;28;20061;-67
2021/04/29 03:41:00;;;;;;;10.55;8.60;;;14.30;85.00;;;;;;2085587;28;20124;-67
2021/04/29 03:42:01;;;;;;;12.27;8.82;;;14.40;85.50;;;;;;2079573;28;20025;-67
2021/04/29 03:43:02;;;;;;;11.85;8.52;;;14.30;85.80;;;;;;2079536;28;20482;-67
2021/04/29 03:44:03;;;;;;;9.77;8.40;;;14.30;85.90;;;;;;2079830;28;20025;-67
2021/04/29 03:45:05;;;;;;;10.73;8.30;;;14.30;86.00;;;;;;2075536;28;20137;-67
2021/04/29 03:46:06;;;;;;;10.15;9.00;;;14.30;85.80;;;;;;2081911;28;20087;-67
2021/04/29 03:47:07;;;;;;;13.95;9.18;;;14.30;85.60;;;;;;2085808;28;20094;-67
2021/04/29 03:48:08;;;;;;;11.05;9.05;;;14.30;85.80;;;;;;2079795;28;20021;-67
2021/04/29 03:49:09;;;;;;;11.40;8.93;;;14.30;85.70;;;;;;2080041;28;20056;-67
2021/04/29 03:50:10;;;;;;;10.38;9.10;;;14.30;85.40;;;;;;2079858;28;20024;-67
2021/04/29 03:51:10;;;;;;;17.00;8.73;;;14.30;85.60;;;;;;2080098;28;20543;-67
2021/04/29 03:52:11;;;;;;;13.88;9.10;;;14.30;86.00;;;;;;2079579;28;20017;-67
2021/04/29 03:53:12;;;;;;;15.50;9.27;;;14.30;85.80;;;;;;2079824;28;20028;-67
2021/04/29 03:54:12;;;;;;;13.10;9.52;;;14.30;85.80;;;;;;2079713;28;20061;-67
2021/04/29 03:55:13;;;;;;;10.35;8.95;;;14.30;85.80;;;;;;2081712;28;20029;-67
2021/04/29 03:56:13;;;;;;;14.80;9.80;;;14.30;86.10;;;;;;2073795;28;20104;-67
2021/04/29 03:57:14;;;;;;;12.13;9.32;;;14.30;85.90;;;;;;2077686;28;20026;-67
2021/04/29 03:58:15;;;;;;;11.10;9.38;;;14.30;86.00;;;;;;2080005;28;20029;-67
2021/04/29 03:59:15;;;;;;;12.55;9.75;;;14.30;86.00;;;;;;2079017;28;20388;-67
2021/04/29 04:00:16;;;;;;;11.38;9.93;;;14.30;86.30;;;;;;2078902;28;20026;-67
2021/04/29 04:01:17;;;;;;;10.43;8.90;;;14.30;86.70;;;;;;2079064;28;20087;-67
2021/04/29 04:02:17;;;;;;;18.48;10.13;;;14.30;86.80;;;;;;2078998;28;20615;-67
2021/04/29 04:03:18;;;;;;;11.15;9.90;;;14.20;86.40;;;;;;2079990;28;20060;-67
2021/04/29 04:04:18;;;;;;;13.50;9.77;;;14.20;86.50;;;;;;2080035;28;20098;-67
2021/04/29 04:05:19;;;;;;;12.35;9.70;;;14.20;86.60;;;;;;2079719;28;20028;-67
2021/04/29 04:06:19;;;;;;;16.27;9.20;;;14.20;87.00;;;;;;2079704;28;20056;-67
2021/04/29 04:07:20;;;;;;;17.85;9.63;;;14.20;86.50;;;;;;2083644;28;20366;-67
2021/04/29 04:08:21;;;;;;;14.75;9.35;;;14.20;86.90;;;;;;2087927;28;20028;-67
2021/04/29 04:09:21;;;;;;;12.60;10.48;;;14.20;86.80;;;;;;2087990;28;20028;-67
2021/04/29 04:10:22;;;;;;;11.38;9.20;;;14.20;87.60;;;;;;2080948;28;20436;-67
2021/04/29 04:11:22;;;;;;;10.50;8.88;;;14.20;86.80;;;;;;2079819;28;20079;-67
2021/04/29 04:12:23;;;;;;;12.25;8.85;;;14.20;87.40;;;;;;2079068;28;20052;-67
2021/04/29 04:13:23;;;;;;;12.05;9.27;;;14.20;86.70;;;;;;2079717;28;20040;-67
2021/04/29 04:14:24;;;;;;;10.98;8.93;;;14.20;87.00;;;;;;2080056;28;20030;-67
2021/04/29 04:15:25;;;;;;;14.32;9.93;;;14.20;86.40;;;;;;2079737;28;20037;-67
2021/04/29 04:16:26;;;;;;;12.68;9.50;;;14.20;86.70;;;;;;2079871;28;20045;-67
2021/04/29 04:17:26;;;;;;;19.75;9.90;;;14.20;87.20;;;;;;2079464;28;20510;-67
2021/04/29 04:18:27;;;;;;;14.63;9.45;;;14.20;87.10;;;;;;2079712;28;20029;-67
2021/04/29 04:19:27;;;;;;;12.13;9.38;;;14.20;87.20;;;;;;2079814;28;20113;-67
2021/04/29 04:20:28;;;;;;;12.38;8.93;;;14.20;87.40;;;;;;2079696;28;20037;-67
2021/04/29 04:21:28;;;;;;;10.88;9.77;;;14.20;86.70;;;;;;2079626;28;20040;-67
2021/04/29 04:22:29;;;;;;;10.18;9.13;;;14.20;87.20;;;;;;2075696;28;20041;-67
2021/04/29 04:23:29;;;;;;;15.02;9.68;;;14.20;87.50;;;;;;2073971;28;20030;-67
2021/04/29 04:24:30;;;;;;;11.25;9.20;;;14.20;87.60;;;;;;2078168;28;20044;-67
2021/04/29 04:25:31;;;;;;;12.35;8.32;;;14.20;87.80;;;;;;2085773;28;20036;-67
2021/04/29 04:26:31;;;;;;;12.93;10.18;;;14.20;87.90;;;;;;2083514;28;20075;-67
2021/04/29 04:27:32;;;;;;;13.75;9.48;;;14.20;87.60;;;;;;2076733;28;20041;-67
2021/04/29 04:28:32;;;;;;;12.07;10.35;;;14.10;87.60;;;;;;2077082;28;20039;-67
2021/04/29 04:29:34;;;;;;;12.85;9.27;;;14.10;87.40;;;;;;2082171;28;20407;-67
2021/04/29 04:30:35;;;;;;;12.20;9.43;;;14.10;87.70;;;;;;2080386;28;20032;-67
2021/04/29 04:31:35;;;;;;;13.02;8.98;;;14.10;87.70;;;;;;2077264;28;20029;-67
2021/04/29 04:32:36;;;;;;;10.25;9.10;;;14.10;87.80;;;;;;2084026;28;20650;-67
2021/04/29 04:33:36;;;;;;;11.00;8.60;;;14.10;87.90;;;;;;2087970;28;20025;-67
2021/04/29 04:34:37;;;;;;;22.05;9.70;;;14.10;88.20;;;;;;2082724;28;20167;-67
2021/04/29 04:35:39;;;;;;;12.65;8.82;;;14.20;88.40;;;;;;2088074;28;20033;-67
2021/04/29 04:36:40;;;;;;;12.40;9.75;;;14.10;88.60;;;;;;2087832;28;20020;-67
2021/04/29 04:37:40;;;;;;;11.90;9.15;;;14.10;88.40;;;;;;2087991;28;20032;-67
2021/04/29 04:38:41;;;;;;;14.73;10.10;;;14.10;88.40;;;;;;2085491;28;20033;-67
2021/04/29 04:39:41;;;;;;;14.77;9.93;;;14.10;88.60;;;;;;2083351;28;20036;-67
2021/04/29 04:40:43;;;;;;;17.17;10.27;;;14.10;88.40;;;;;;2084941;28;20041;-67
2021/04/29 04:41:44;;;;;;;14.75;10.50;;;14.10;88.30;;;;;;2079792;28;20116;-69
2021/04/29 04:42:45;;;;;;;11.75;10.05;;;14.10;88.50;;;;;;2078632;28;20029;-67
2021/04/29 04:43:46;;;;;;;12.00;10.60;;;14.10;89.00;;;;;;2079587;28;20025;-67
2021/04/29 04:44:46;;;;;;;11.48;9.93;;;14.10;89.00;;;;;;2079441;28;20060;-67
2021/04/29 04:45:47;;;;;;;12.88;10.05;;;14.10;89.00;;;;;;2079823;28;20589;-67
2021/04/29 04:46:47;;;;;;;12.73;9.88;;;14.10;89.20;;;;;;2079427;28;20056;-67
2021/04/29 04:47:48;;;;;;;14.13;10.73;;;14.10;89.60;;;;;;2078280;28;20104;-67
2021/04/29 04:48:48;;;;;;;13.57;9.43;;;14.10;89.00;;;;;;2079605;28;20029;-67
2021/04/29 04:49:49;;;;;;;11.88;9.20;;;14.10;89.00;;;;;;2078440;28;20026;-67
2021/04/29 04:50:50;;;;;;;12.35;9.98;;;14.00;89.40;;;;;;2079512;28;20026;-67
2021/04/29 04:51:50;;;;;;;16.15;10.40;;;14.10;90.30;;;;;;2078311;28;20524;-67
2021/04/29 04:52:51;;;;;;;16.33;9.65;;;14.10;90.10;;;;;;2078387;28;20604;-67
2021/04/29 04:53:51;;;;;;;12.80;10.07;;;14.00;89.40;;;;;;2079653;28;20025;-67
2021/04/29 04:54:52;;;;;;;12.23;9.77;;;14.10;90.00;;;;;;2079233;28;20059;-67
2021/04/29 04:55:53;;;;;;;15.63;10.38;;;14.00;90.00;;;;;;2077446;28;20026;-67
2021/04/29 04:56:54;;;;;;;12.07;9.07;;;14.00;90.00;;;;;;2080916;28;20109;-67
2021/04/29 04:57:54;;;;;;;10.52;9.27;;;14.00;90.20;;;;;;2080380;28;20036;-67
2021/04/29 04:58:55;;;;;;;16.45;9.90;;;14.00;90.20;;;;;;2079838;28;20388;-67
2021/04/29 04:59:56;;;;;;;12.43;10.40;;;14.00;90.20;;;;;;2080932;28;20136;-67
2021/04/29 05:00:56;;;;;;;16.80;10.52;;;14.00;90.40;;;;;;2084287;28;20025;-67
2021/04/29 05:01:57;;;;;;;12.52;9.95;;;14.00;90.50;;;;;;2081409;28;20048;-67
2021/04/29 05:02:57;;;;;;;15.77;10.27;;;14.00;90.50;;;;;;2088850;28;20055;-67
2021/04/29 05:03:58;;;;;;;13.60;11.18;;;14.00;90.40;;;;;;2089544;28;20109;-67
2021/04/29 05:04:59;;;;;;;15.25;10.40;;;14.00;90.50;;;;;;2086101;28;20030;-67
2021/04/29 05:05:59;;;;;;;15.85;10.52;;;14.00;90.60;;;;;;2080870;28;20417;-67
2021/04/29 05:07:01;;;;;;;13.45;9.98;;;14.00;90.70;;;;;;2081101;28;20024;-67
2021/04/29 05:08:02;;;;;;;12.68;10.48;;;14.00;90.80;;;;;;2081215;28;20021;-67
2021/04/29 05:09:04;;;;;;;17.90;11.10;;;13.90;90.70;;;;;;2081141;28;20492;-67
2021/04/29 05:10:05;;;;;;;14.45;9.63;;;13.90;91.00;;;;;;2081046;28;20116;-67
2021/04/29 05:11:06;;;;;;;19.20;11.75;;;13.90;90.60;;;;;;2080974;28;20049;-67
2021/04/29 05:12:07;;;;;;;15.63;11.57;;;13.90;90.80;;;;;;2080654;28;20028;-67
2021/04/29 05:13:08;;;;;;;14.27;11.95;;;13.90;91.00;;;;;;2080949;28;20021;-67
2021/04/29 05:14:08;;;;;;;13.63;10.63;;;13.90;91.20;;;;;;2080469;28;20018;-67
2021/04/29 05:15:09;;;;;;;21.35;11.88;;;13.90;91.00;;;;;;2081229;28;20036;-67
2021/04/29 05:16:10;;;;;;;16.45;12.05;;;13.90;91.20;;;;;;2081270;28;20033;-67
2021/04/29 05:17:10;;;;;;;18.05;11.88;;;13.90;91.40;;;;;;2086189;28;20464;-67
2021/04/29 05:18:11;;;;;;;22.95;13.07;;;13.80;91.40;;;;;;2089430;28;20025;-67
2021/04/29 05:19:12;;;;;;;16.98;11.82;;;13.80;91.60;;;;;;2081336;28;20103;-67
2021/04/29 05:20:13;;;;;;;16.88;11.98;;;13.80;91.70;;;;;;2083847;28;20017;-67